| time (UTC) | temp F | wind direction | speed MPH | gust MPH | rain 1hr in | rain 24hr in | rain mn in | humidity % | barometer mb |
| 20260906234534 | 64 | 326 | 3.0 | 8.0 | 0.00 | 0.28 | 0.12 | 75 | 1012.6 |
| 20260906233033 | 64 | 11 | 4.0 | 9.0 | 0.00 | 0.28 | 0.12 | 75 | 1012.6 |
| 20260906231533 | 64 | 44 | 4.0 | 7.0 | 0.00 | 0.28 | 0.12 | 75 | 1012.4 |
| 20260906230030 | 64 | 51 | 3.0 | 9.0 | 0.00 | 0.28 | 0.12 | 76 | 1012.5 |
| 20260906224532 | 62 | 351 | 5.0 | 9.0 | 0.00 | 0.28 | 0.12 | 77 | 1012.8 |
| 20260906223024 | 61 | 313 | 4.0 | 8.0 | 0.00 | 0.28 | 0.12 | 78 | 1012.9 |
| 20260906221521 | 61 | 13 | 4.0 | 10.0 | 0.00 | 0.28 | 0.12 | 79 | 1013.0 |
| 20260906220019 | 60 | 306 | 7.0 | 12.0 | 0.00 | 0.28 | 0.12 | 81 | 1013.3 |
| 20260906214526 | 60 | 296 | 4.0 | 11.0 | 0.00 | 0.28 | 0.12 | 81 | 1013.4 |
| 20260906213018 | 60 | 265 | 2.0 | 9.0 | 0.00 | 0.28 | 0.12 | 81 | 1013.3 |
| 20260906211517 | 60 | 298 | 0.0 | 5.0 | 0.00 | 0.28 | 0.12 | 82 | 1013.3 |
| 20260906210016 | 60 | 311 | 2.0 | 4.0 | 0.00 | 0.28 | 0.12 | 82 | 1013.3 |
| 20260906204516 | 61 | 305 | 2.0 | 4.0 | 0.00 | 0.28 | 0.12 | 80 | 1013.2 |
| 20260906203014 | 61 | 62 | 0.0 | 1.0 | 0.00 | 0.28 | 0.12 | 80 | 1013.2 |
| 20260906201514 | 61 | 62 | 0.0 | 0.0 | 0.00 | 0.28 | 0.12 | 81 | 1013.3 |
| 20260906200012 | 61 | 62 | 0.0 | 1.0 | 0.00 | 0.28 | 0.12 | 81 | 1013.4 |
| 20260906194511 | 60 | 62 | 0.0 | 1.0 | 0.00 | 0.28 | 0.12 | 82 | 1013.4 |
| 20260906193008 | 60 | 62 | 0.0 | 0.0 | 0.00 | 0.28 | 0.12 | 82 | 1013.5 |
| 20260906191508 | 60 | 62 | 0.0 | 4.0 | 0.00 | 0.28 | 0.12 | 82 | 1013.7 |
| 20260906190006 | 59 | 331 | 0.0 | 5.0 | 0.00 | 0.28 | 0.12 | 84 | 1013.8 |
| 20260906184505 | 59 | 355 | 2.0 | 8.0 | 0.00 | 0.28 | 0.12 | 85 | 1014.0 |
| 20260906183009 | 59 | 39 | 4.0 | 9.0 | 0.00 | 0.28 | 0.12 | 85 | 1014.0 |
| 20260906181502 | 59 | 31 | 5.0 | 13.0 | 0.00 | 0.28 | 0.12 | 84 | 1013.9 |
| 20260906174557 | 58 | 42 | 12.0 | 19.0 | 0.00 | 0.28 | 0.12 | 86 | 1013.5 |
| 20260906173054 | 58 | 40 | 8.0 | 15.0 | 0.00 | 0.28 | 0.12 | 85 | 1014.1 |
| 20260906171554 | 58 | 355 | 8.0 | 15.0 | 0.00 | 0.28 | 0.12 | 87 | 1014.3 |
| 20260906170052 | 58 | 19 | 11.0 | 15.0 | 0.00 | 0.28 | 0.12 | 91 | 1014.6 |
| 20260906164548 | 57 | 11 | 9.0 | 14.0 | 0.00 | 0.28 | 0.12 | 94 | 1014.4 |
| 20260906163045 | 55 | 15 | 7.0 | 10.0 | 0.00 | 0.28 | 0.12 | 95 | 1014.7 |
| 20260906161538 | 54 | 348 | 3.0 | 5.0 | 0.00 | 0.28 | 0.12 | 95 | 1015.6 |
| 20260906160037 | 54 | 10 | 1.0 | 3.0 | 0.00 | 0.28 | 0.12 | 95 | 1015.7 |
| 20260906154541 | 54 | 10 | 0.0 | 5.0 | 0.00 | 0.28 | 0.12 | 94 | 1015.6 |
| 20260906153035 | 54 | 355 | 4.0 | 9.0 | 0.00 | 0.28 | 0.12 | 95 | 1015.5 |
| 20260906151533 | 53 | 346 | 4.0 | 11.0 | 0.00 | 0.28 | 0.12 | 95 | 1015.7 |
| 20260906150040 | 53 | 5 | 6.0 | 11.0 | 0.01 | 0.28 | 0.12 | 94 | 1015.7 |
| 20260906144533 | 53 | 348 | 7.0 | 12.0 | 0.05 | 0.28 | 0.12 | 94 | 1015.6 |
| 20260906143031 | 53 | 329 | 9.0 | 14.0 | 0.08 | 0.28 | 0.12 | 94 | 1015.8 |
| 20260906141529 | 53 | 328 | 10.0 | 16.0 | 0.09 | 0.28 | 0.12 | 94 | 1015.8 |
| 20260906140026 | 53 | 338 | 8.0 | 21.0 | 0.08 | 0.28 | 0.11 | 94 | 1016.1 |
| 20260906134538 | 53 | 286 | 16.0 | 22.0 | 0.04 | 0.28 | 0.07 | 93 | 1016.6 |
| 20260906133031 | 54 | 297 | 15.0 | 21.0 | 0.01 | 0.25 | 0.04 | 93 | 1015.9 |
| 20260906131520 | 54 | 263 | 8.0 | 12.0 | 0.00 | 0.24 | 0.03 | 92 | 1016.0 |
| 20260906130019 | 54 | 355 | 1.0 | 5.0 | 0.00 | 0.24 | 0.03 | 92 | 1015.5 |
| 20260906124517 | 54 | 19 | 4.0 | 9.0 | 0.00 | 0.26 | 0.03 | 92 | 1015.6 |
| 20260906123027 | 54 | 355 | 8.0 | 11.0 | 0.00 | 0.26 | 0.03 | 92 | 1015.7 |
| 20260906121517 | 54 | 342 | 4.0 | 11.0 | 0.00 | 0.26 | 0.03 | 92 | 1016.1 |
| 20260906120016 | 54 | 315 | 6.0 | 11.0 | 0.00 | 0.26 | 0.03 | 92 | 1015.9 |
| 20260906114516 | 54 | 331 | 8.0 | 13.0 | 0.00 | 0.27 | 0.03 | 93 | 1015.7 |
| 20260906113015 | 54 | 307 | 10.0 | 16.0 | 0.00 | 0.27 | 0.03 | 93 | 1015.9 |
| 20260906111515 | 55 | 302 | 11.0 | 16.0 | 0.00 | 0.27 | 0.03 | 93 | 1016.0 |
| 20260906110013 | 55 | 261 | 5.0 | 8.0 | 0.00 | 0.27 | 0.03 | 93 | 1016.0 |
| 20260906104512 | 55 | 27 | 4.0 | 10.0 | 0.00 | 0.27 | 0.03 | 92 | 1015.4 |
| 20260906103013 | 55 | 17 | 7.0 | 14.0 | 0.00 | 0.27 | 0.03 | 92 | 1015.1 |
| 20260906101519 | 55 | 38 | 10.0 | 17.0 | 0.00 | 0.27 | 0.03 | 92 | 1015.1 |
| 20260906100009 | 55 | 40 | 10.0 | 16.0 | 0.00 | 0.27 | 0.03 | 93 | 1015.4 |
| 20260906094508 | 55 | 24 | 7.0 | 15.0 | 0.00 | 0.27 | 0.03 | 94 | 1015.5 |
| 20260906093005 | 55 | 27 | 10.0 | 18.0 | 0.00 | 0.27 | 0.03 | 94 | 1015.7 |
| 20260906091506 | 54 | 32 | 10.0 | 19.0 | 0.00 | 0.27 | 0.03 | 95 | 1015.4 |
| 20260906090003 | 54 | 37 | 12.0 | 20.0 | 0.00 | 0.27 | 0.03 | 95 | 1015.4 |
| 20260906084503 | 54 | 34 | 13.0 | 22.0 | 0.00 | 0.27 | 0.03 | 95 | 1015.4 |
| 20260906083102 | 54 | 17 | 9.0 | 18.0 | 0.00 | 0.27 | 0.03 | 95 | 1015.5 |
| 20260906081557 | 54 | 5 | 14.0 | 18.0 | 0.02 | 0.27 | 0.03 | 95 | 1016.2 |
| 20260906080055 | 54 | 329 | 8.0 | 14.0 | 0.02 | 0.27 | 0.03 | 95 | 1017.4 |
| 20260906074554 | 54 | 322 | 9.0 | 14.0 | 0.02 | 0.27 | 0.03 | 95 | 1017.3 |
| 20260906073052 | 54 | 347 | 9.0 | 15.0 | 0.03 | 0.27 | 0.03 | 94 | 1016.5 |
| 20260906071551 | 54 | 264 | 2.0 | 12.0 | 0.01 | 0.25 | 0.01 | 94 | 1017.8 |
| 20260906070050 | 54 | 360 | 7.0 | 19.0 | 0.01 | 0.25 | 0.01 | 94 | 1016.8 |
| 20260906064548 | 54 | 19 | 11.0 | 16.0 | 0.02 | 0.25 | 0.01 | 94 | 1016.6 |
| 20260906063046 | 54 | 289 | 9.0 | 13.0 | 0.08 | 0.24 | 0.00 | 94 | 1017.5 |
| 20260906061544 | 54 | 355 | 11.0 | 15.0 | 0.09 | 0.24 | 0.00 | 94 | 1017.0 |
| 20260906060041 | 54 | 355 | 13.0 | 19.0 | 0.10 | 0.24 | 0.00 | 93 | 1017.1 |
| 20260906054542 | 55 | 336 | 11.0 | 15.0 | 0.09 | 0.23 | 0.23 | 93 | 1017.6 |
| 20260906053043 | 55 | 355 | 7.0 | 13.0 | 0.02 | 0.16 | 0.16 | 92 | 1018.0 |
| 20260906051536 | 55 | 348 | 10.0 | 16.0 | 0.02 | 0.15 | 0.15 | 92 | 1017.2 |
| 20260906050036 | 55 | 355 | 10.0 | 14.0 | 0.01 | 0.14 | 0.14 | 92 | 1017.1 |
| 20260906044535 | 55 | 349 | 8.0 | 12.0 | 0.01 | 0.14 | 0.14 | 91 | 1017.4 |
| 20260906043035 | 56 | 319 | 10.0 | 13.0 | 0.01 | 0.14 | 0.14 | 91 | 1016.9 |
| 20260906041535 | 56 | 306 | 3.0 | 14.0 | 0.00 | 0.13 | 0.13 | 90 | 1017.5 |
| 20260906040038 | 56 | 355 | 11.0 | 16.0 | 0.01 | 0.13 | 0.13 | 90 | 1016.3 |
| 20260906034541 | 56 | 344 | 9.0 | 14.0 | 0.05 | 0.13 | 0.13 | 89 | 1016.5 |
| 20260906033031 | 56 | 355 | 10.0 | 17.0 | 0.05 | 0.13 | 0.13 | 88 | 1016.6 |
| 20260906031532 | 57 | 348 | 9.0 | 16.0 | 0.05 | 0.13 | 0.13 | 86 | 1016.7 |
| 20260906030030 | 59 | 355 | 14.0 | 18.0 | 0.03 | 0.11 | 0.11 | 82 | 1015.5 |
| 20260906024527 | 61 | 295 | 7.0 | 12.0 | 0.00 | 0.08 | 0.08 | 74 | 1017.0 |
| 20260906023025 | 61 | 304 | 9.0 | 13.0 | 0.00 | 0.08 | 0.08 | 70 | 1015.7 |
| 20260906021526 | 62 | 347 | 10.0 | 14.0 | 0.00 | 0.08 | 0.08 | 70 | 1015.0 |
| 20260906020026 | 62 | 5 | 11.0 | 15.0 | 0.00 | 0.08 | 0.08 | 69 | 1015.0 |
| 20260906014528 | 63 | 19 | 9.0 | 16.0 | 0.00 | 0.08 | 0.08 | 67 | 1015.1 |
| 20260906013028 | 64 | 351 | 10.0 | 15.0 | 0.00 | 0.08 | 0.08 | 65 | 1015.2 |
| 20260906011524 | 64 | 13 | 9.0 | 14.0 | 0.00 | 0.08 | 0.08 | 64 | 1015.1 |
| 20260906010022 | 65 | 355 | 8.0 | 15.0 | 0.00 | 0.08 | 0.08 | 61 | 1015.0 |
| 20260906004522 | 66 | 5 | 10.0 | 16.0 | 0.00 | 0.08 | 0.08 | 59 | 1014.9 |
| 20260906003020 | 66 | 351 | 9.0 | 14.0 | 0.00 | 0.08 | 0.08 | 57 | 1014.9 |
| 20260906001520 | 67 | 18 | 9.0 | 15.0 | 0.00 | 0.08 | 0.08 | 56 | 1015.0 |
| 20260906000022 | 68 | 349 | 11.0 | 14.0 | 0.00 | 0.08 | 0.08 | 55 | 1015.2 |